sensor_id;sensor_type;location;lat;lon;timestamp;temperature;humidity
18321;DHT22;54904;54.350;18.664;2022-10-23T00:01:45;15.70;99.90
18321;DHT22;54904;54.350;18.664;2022-10-23T00:04:14;15.70;99.90
18321;DHT22;54904;54.350;18.664;2022-10-23T00:06:42;15.70;99.90
18321;DHT22;54904;54.350;18.664;2022-10-23T00:09:11;15.70;99.90
18321;DHT22;54904;54.350;18.664;2022-10-23T00:11:38;15.70;99.90
18321;DHT22;54904;54.350;18.664;2022-10-23T00:14:06;15.70;99.90
18321;DHT22;54904;54.350;18.664;2022-10-23T00:16:34;15.70;99.90
18321;DHT22;54904;54.350;18.664;2022-10-23T00:19:03;15.70;99.90
18321;DHT22;54904;54.350;18.664;2022-10-23T00:21:31;15.70;99.90
18321;DHT22;54904;54.350;18.664;2022-10-23T00:23:58;15.70;99.90
18321;DHT22;54904;54.350;18.664;2022-10-23T00:26:25;15.70;99.90
18321;DHT22;54904;54.350;18.664;2022-10-23T00:28:54;15.70;99.90
18321;DHT22;54904;54.350;18.664;2022-10-23T00:31:22;15.70;99.90
18321;DHT22;54904;54.350;18.664;2022-10-23T00:33:51;15.70;99.90
18321;DHT22;54904;54.350;18.664;2022-10-23T00:36:20;15.70;99.90
18321;DHT22;54904;54.350;18.664;2022-10-23T00:38:49;15.70;99.90
18321;DHT22;54904;54.350;18.664;2022-10-23T00:41:19;15.70;99.90
18321;DHT22;54904;54.350;18.664;2022-10-23T00:43:59;15.70;99.90
18321;DHT22;54904;54.350;18.664;2022-10-23T00:46:26;15.70;99.90
18321;DHT22;54904;54.350;18.664;2022-10-23T00:48:54;15.70;99.90
18321;DHT22;54904;54.350;18.664;2022-10-23T00:51:25;15.70;99.90
18321;DHT22;54904;54.350;18.664;2022-10-23T00:53:56;15.70;99.90
18321;DHT22;54904;54.350;18.664;2022-10-23T00:56:25;15.70;99.90
18321;DHT22;54904;54.350;18.664;2022-10-23T00:58:52;15.70;99.90
18321;DHT22;54904;54.350;18.664;2022-10-23T01:01:21;15.70;99.90
18321;DHT22;54904;54.350;18.664;2022-10-23T01:03:49;15.70;99.90
18321;DHT22;54904;54.350;18.664;2022-10-23T01:06:22;15.70;99.90
18321;DHT22;54904;54.350;18.664;2022-10-23T01:08:57;15.70;99.90
18321;DHT22;54904;54.350;18.664;2022-10-23T01:11:32;15.80;99.90
18321;DHT22;54904;54.350;18.664;2022-10-23T01:14:06;15.70;99.90
18321;DHT22;54904;54.350;18.664;2022-10-23T01:16:41;15.70;99.90
18321;DHT22;54904;54.350;18.664;2022-10-23T01:19:20;15.70;99.90
18321;DHT22;54904;54.350;18.664;2022-10-23T01:21:53;15.70;99.90
18321;DHT22;54904;54.350;18.664;2022-10-23T01:24:33;15.70;99.90
18321;DHT22;54904;54.350;18.664;2022-10-23T01:27:23;15.70;99.90
18321;DHT22;54904;54.350;18.664;2022-10-23T01:29:58;15.70;99.90
18321;DHT22;54904;54.350;18.664;2022-10-23T01:32:38;15.70;99.90
18321;DHT22;54904;54.350;18.664;2022-10-23T01:35:11;15.70;99.90
18321;DHT22;54904;54.350;18.664;2022-10-23T01:37:43;15.70;99.90
18321;DHT22;54904;54.350;18.664;2022-10-23T01:40:20;15.70;99.90
18321;DHT22;54904;54.350;18.664;2022-10-23T01:42:52;15.70;99.90
18321;DHT22;54904;54.350;18.664;2022-10-23T01:45:27;15.70;99.90
18321;DHT22;54904;54.350;18.664;2022-10-23T01:47:56;15.70;99.90
18321;DHT22;54904;54.350;18.664;2022-10-23T01:50:26;15.70;99.90
18321;DHT22;54904;54.350;18.664;2022-10-23T01:53:00;15.70;99.90
18321;DHT22;54904;54.350;18.664;2022-10-23T01:55:28;15.70;99.90
18321;DHT22;54904;54.350;18.664;2022-10-23T01:58:00;15.70;99.90
18321;DHT22;54904;54.350;18.664;2022-10-23T02:00:37;15.70;99.90
18321;DHT22;54904;54.350;18.664;2022-10-23T02:03:06;15.50;99.90
18321;DHT22;54904;54.350;18.664;2022-10-23T02:05:34;15.70;99.90
18321;DHT22;54904;54.350;18.664;2022-10-23T02:08:03;15.70;99.90
18321;DHT22;54904;54.350;18.664;2022-10-23T02:10:34;15.70;99.90
18321;DHT22;54904;54.350;18.664;2022-10-23T02:13:08;15.60;99.90
18321;DHT22;54904;54.350;18.664;2022-10-23T02:15:40;15.60;99.90
18321;DHT22;54904;54.350;18.664;2022-10-23T02:18:23;15.60;99.90
18321;DHT22;54904;54.350;18.664;2022-10-23T02:20:56;15.60;99.90
18321;DHT22;54904;54.350;18.664;2022-10-23T02:23:29;15.60;99.90
18321;DHT22;54904;54.350;18.664;2022-10-23T02:26:04;15.60;99.90
18321;DHT22;54904;54.350;18.664;2022-10-23T02:28:37;15.50;99.90
18321;DHT22;54904;54.350;18.664;2022-10-23T02:31:08;15.50;99.90
18321;DHT22;54904;54.350;18.664;2022-10-23T02:33:36;15.60;99.90
18321;DHT22;54904;54.350;18.664;2022-10-23T02:36:04;15.50;99.90
18321;DHT22;54904;54.350;18.664;2022-10-23T02:38:34;15.50;99.90
18321;DHT22;54904;54.350;18.664;2022-10-23T02:41:24;15.50;99.90
18321;DHT22;54904;54.350;18.664;2022-10-23T02:44:03;15.50;99.90
18321;DHT22;54904;54.350;18.664;2022-10-23T02:46:38;15.50;99.90
18321;DHT22;54904;54.350;18.664;2022-10-23T02:49:12;15.50;99.90
18321;DHT22;54904;54.350;18.664;2022-10-23T02:51:52;15.50;99.90
18321;DHT22;54904;54.350;18.664;2022-10-23T02:54:35;15.50;99.90
18321;DHT22;54904;54.350;18.664;2022-10-23T02:57:12;15.50;99.90
18321;DHT22;54904;54.350;18.664;2022-10-23T02:59:50;15.50;99.90
18321;DHT22;54904;54.350;18.664;2022-10-23T03:02:20;15.50;99.90
18321;DHT22;54904;54.350;18.664;2022-10-23T03:04:49;15.50;99.90
18321;DHT22;54904;54.350;18.664;2022-10-23T03:07:18;15.50;99.90
18321;DHT22;54904;54.350;18.664;2022-10-23T03:09:46;15.40;99.90
18321;DHT22;54904;54.350;18.664;2022-10-23T03:12:13;15.50;99.90
18321;DHT22;54904;54.350;18.664;2022-10-23T03:14:41;15.50;99.90
18321;DHT22;54904;54.350;18.664;2022-10-23T03:17:09;15.40;99.90
18321;DHT22;54904;54.350;18.664;2022-10-23T03:19:37;15.40;99.90
18321;DHT22;54904;54.350;18.664;2022-10-23T03:22:04;15.40;99.90
18321;DHT22;54904;54.350;18.664;2022-10-23T03:24:31;15.40;99.90
18321;DHT22;54904;54.350;18.664;2022-10-23T03:26:58;15.40;99.90
18321;DHT22;54904;54.350;18.664;2022-10-23T03:29:30;15.30;99.90
18321;DHT22;54904;54.350;18.664;2022-10-23T03:31:57;15.30;99.90
18321;DHT22;54904;54.350;18.664;2022-10-23T03:34:26;15.30;99.90
18321;DHT22;54904;54.350;18.664;2022-10-23T03:36:54;15.30;99.90
18321;DHT22;54904;54.350;18.664;2022-10-23T03:39:21;15.30;99.90
18321;DHT22;54904;54.350;18.664;2022-10-23T03:41:48;15.30;99.90
18321;DHT22;54904;54.350;18.664;2022-10-23T03:44:16;15.30;99.90
18321;DHT22;54904;54.350;18.664;2022-10-23T03:46:44;15.20;99.90
18321;DHT22;54904;54.350;18.664;2022-10-23T03:49:11;15.20;99.90
18321;DHT22;54904;54.350;18.664;2022-10-23T03:51:44;15.20;99.90
18321;DHT22;54904;54.350;18.664;2022-10-23T03:54:18;15.20;99.90
18321;DHT22;54904;54.350;18.664;2022-10-23T03:56:46;15.20;99.90
18321;DHT22;54904;54.350;18.664;2022-10-23T03:59:14;15.20;99.90
18321;DHT22;54904;54.350;18.664;2022-10-23T04:01:41;15.20;99.90
18321;DHT22;54904;54.350;18.664;2022-10-23T04:04:09;15.20;99.90
18321;DHT22;54904;54.350;18.664;2022-10-23T04:06:36;15.20;99.90
18321;DHT22;54904;54.350;18.664;2022-10-23T04:09:05;15.20;99.90
18321;DHT22;54904;54.350;18.664;2022-10-23T04:11:33;15.20;99.90
18321;DHT22;54904;54.350;18.664;2022-10-23T04:14:00;15.20;99.90
18321;DHT22;54904;54.350;18.664;2022-10-23T04:16:27;15.20;99.90
18321;DHT22;54904;54.350;18.664;2022-10-23T04:18:54;15.20;99.90
18321;DHT22;54904;54.350;18.664;2022-10-23T04:21:22;15.20;99.90
18321;DHT22;54904;54.350;18.664;2022-10-23T04:23:49;15.20;99.90
18321;DHT22;54904;54.350;18.664;2022-10-23T04:26:18;15.20;99.90
18321;DHT22;54904;54.350;18.664;2022-10-23T04:28:46;15.20;99.90
18321;DHT22;54904;54.350;18.664;2022-10-23T04:31:13;15.20;99.90
18321;DHT22;54904;54.350;18.664;2022-10-23T04:33:41;15.20;99.90
18321;DHT22;54904;54.350;18.664;2022-10-23T04:36:12;15.20;99.90
18321;DHT22;54904;54.350;18.664;2022-10-23T04:38:39;15.20;99.90
18321;DHT22;54904;54.350;18.664;2022-10-23T04:41:06;15.20;99.90
18321;DHT22;54904;54.350;18.664;2022-10-23T04:43:35;15.20;99.90
18321;DHT22;54904;54.350;18.664;2022-10-23T04:46:02;15.20;99.90
18321;DHT22;54904;54.350;18.664;2022-10-23T04:48:30;15.20;99.90
18321;DHT22;54904;54.350;18.664;2022-10-23T04:51:16;15.20;99.90
18321;DHT22;54904;54.350;18.664;2022-10-23T04:54:09;15.10;99.90
18321;DHT22;54904;54.350;18.664;2022-10-23T04:56:37;15.20;99.90
18321;DHT22;54904;54.350;18.664;2022-10-23T04:59:12;15.10;99.90
18321;DHT22;54904;54.350;18.664;2022-10-23T05:01:41;15.10;99.90
18321;DHT22;54904;54.350;18.664;2022-10-23T05:04:08;15.10;99.90
18321;DHT22;54904;54.350;18.664;2022-10-23T05:07:01;15.10;99.90
18321;DHT22;54904;54.350;18.664;2022-10-23T05:09:47;15.10;99.90
18321;DHT22;54904;54.350;18.664;2022-10-23T05:12:21;15.10;99.90
18321;DHT22;54904;54.350;18.664;2022-10-23T05:14:51;15.10;99.90
18321;DHT22;54904;54.350;18.664;2022-10-23T05:17:21;15.10;99.90
18321;DHT22;54904;54.350;18.664;2022-10-23T05:19:51;15.10;99.90
18321;DHT22;54904;54.350;18.664;2022-10-23T05:22:20;15.10;99.90
18321;DHT22;54904;54.350;18.664;2022-10-23T05:24:52;15.10;99.90
18321;DHT22;54904;54.350;18.664;2022-10-23T05:27:23;15.00;99.90
18321;DHT22;54904;54.350;18.664;2022-10-23T05:29:54;15.00;99.90
18321;DHT22;54904;54.350;18.664;2022-10-23T05:32:28;15.10;99.90
18321;DHT22;54904;54.350;18.664;2022-10-23T05:34:58;15.10;99.90
18321;DHT22;54904;54.350;18.664;2022-10-23T05:37:29;15.10;99.90
18321;DHT22;54904;54.350;18.664;2022-10-23T05:40:07;15.10;99.90
18321;DHT22;54904;54.350;18.664;2022-10-23T05:42:36;15.10;99.90
18321;DHT22;54904;54.350;18.664;2022-10-23T05:45:06;15.00;99.90
18321;DHT22;54904;54.350;18.664;2022-10-23T05:47:52;15.00;99.90
18321;DHT22;54904;54.350;18.664;2022-10-23T05:50:42;15.00;99.90
18321;DHT22;54904;54.350;18.664;2022-10-23T05:53:16;15.00;99.90
18321;DHT22;54904;54.350;18.664;2022-10-23T05:56:10;15.00;99.90
18321;DHT22;54904;54.350;18.664;2022-10-23T05:58:55;15.10;99.90
18321;DHT22;54904;54.350;18.664;2022-10-23T06:01:50;15.10;99.90
18321;DHT22;54904;54.350;18.664;2022-10-23T06:04:32;15.10;99.90
18321;DHT22;54904;54.350;18.664;2022-10-23T06:07:22;15.10;99.90
18321;DHT22;54904;54.350;18.664;2022-10-23T06:09:50;15.10;99.90
18321;DHT22;54904;54.350;18.664;2022-10-23T06:12:18;15.10;99.90
18321;DHT22;54904;54.350;18.664;2022-10-23T06:14:47;15.10;99.90
18321;DHT22;54904;54.350;18.664;2022-10-23T06:17:15;15.10;99.90
18321;DHT22;54904;54.350;18.664;2022-10-23T06:19:45;15.10;99.90
18321;DHT22;54904;54.350;18.664;2022-10-23T06:22:15;15.10;99.90
18321;DHT22;54904;54.350;18.664;2022-10-23T06:24:48;15.10;99.90
18321;DHT22;54904;54.350;18.664;2022-10-23T06:27:21;15.10;99.90
18321;DHT22;54904;54.350;18.664;2022-10-23T06:29:49;15.10;99.90
18321;DHT22;54904;54.350;18.664;2022-10-23T06:32:17;15.20;99.90
18321;DHT22;54904;54.350;18.664;2022-10-23T06:34:56;15.20;99.90
18321;DHT22;54904;54.350;18.664;2022-10-23T06:37:24;15.10;99.90
18321;DHT22;54904;54.350;18.664;2022-10-23T06:40:06;15.20;99.90
18321;DHT22;54904;54.350;18.664;2022-10-23T06:42:50;15.20;99.90
18321;DHT22;54904;54.350;18.664;2022-10-23T06:45:40;15.20;99.90
18321;DHT22;54904;54.350;18.664;2022-10-23T06:48:12;15.30;99.90
18321;DHT22;54904;54.350;18.664;2022-10-23T06:51:05;15.30;99.90
18321;DHT22;54904;54.350;18.664;2022-10-23T06:53:38;15.30;99.90
18321;DHT22;54904;54.350;18.664;2022-10-23T06:56:19;15.30;99.90
18321;DHT22;54904;54.350;18.664;2022-10-23T06:58:46;15.30;99.90
18321;DHT22;54904;54.350;18.664;2022-10-23T07:01:14;15.30;99.90
18321;DHT22;54904;54.350;18.664;2022-10-23T07:03:46;15.30;99.90
18321;DHT22;54904;54.350;18.664;2022-10-23T07:06:17;15.30;99.90
18321;DHT22;54904;54.350;18.664;2022-10-23T07:08:44;15.30;99.90
18321;DHT22;54904;54.350;18.664;2022-10-23T07:11:30;15.30;99.90
18321;DHT22;54904;54.350;18.664;2022-10-23T07:13:57;15.40;99.90
18321;DHT22;54904;54.350;18.664;2022-10-23T07:16:24;15.40;99.90
18321;DHT22;54904;54.350;18.664;2022-10-23T07:18:55;15.40;99.90
18321;DHT22;54904;54.350;18.664;2022-10-23T07:21:44;15.40;99.90
18321;DHT22;54904;54.350;18.664;2022-10-23T07:24:37;15.50;99.90
18321;DHT22;54904;54.350;18.664;2022-10-23T07:27:16;15.50;99.90
18321;DHT22;54904;54.350;18.664;2022-10-23T07:29:43;15.50;99.90
18321;DHT22;54904;54.350;18.664;2022-10-23T07:32:11;15.50;99.90
18321;DHT22;54904;54.350;18.664;2022-10-23T07:35:07;15.60;99.90
18321;DHT22;54904;54.350;18.664;2022-10-23T07:37:37;15.60;99.90
18321;DHT22;54904;54.350;18.664;2022-10-23T07:40:05;15.60;99.90
18321;DHT22;54904;54.350;18.664;2022-10-23T07:42:40;15.60;99.90
18321;DHT22;54904;54.350;18.664;2022-10-23T07:45:08;15.60;99.90
18321;DHT22;54904;54.350;18.664;2022-10-23T07:47:39;15.60;99.90
18321;DHT22;54904;54.350;18.664;2022-10-23T07:50:09;15.60;99.90
18321;DHT22;54904;54.350;18.664;2022-10-23T07:52:36;15.70;99.90
18321;DHT22;54904;54.350;18.664;2022-10-23T07:55:12;15.70;99.90
18321;DHT22;54904;54.350;18.664;2022-10-23T07:57:46;15.70;99.90
18321;DHT22;54904;54.350;18.664;2022-10-23T08:00:39;15.70;99.90
18321;DHT22;54904;54.350;18.664;2022-10-23T08:03:18;15.80;99.90
18321;DHT22;54904;54.350;18.664;2022-10-23T08:05:48;15.80;99.90
18321;DHT22;54904;54.350;18.664;2022-10-23T08:08:15;15.80;99.90
18321;DHT22;54904;54.350;18.664;2022-10-23T08:10:46;15.90;99.90
18321;DHT22;54904;54.350;18.664;2022-10-23T08:13:21;15.90;99.90
18321;DHT22;54904;54.350;18.664;2022-10-23T08:15:57;15.90;99.90
18321;DHT22;54904;54.350;18.664;2022-10-23T08:18:47;15.90;99.90
18321;DHT22;54904;54.350;18.664;2022-10-23T08:21:18;15.90;99.90
18321;DHT22;54904;54.350;18.664;2022-10-23T08:23:46;15.90;99.90
18321;DHT22;54904;54.350;18.664;2022-10-23T08:26:14;16.00;99.90
18321;DHT22;54904;54.350;18.664;2022-10-23T08:28:45;16.00;99.90
18321;DHT22;54904;54.350;18.664;2022-10-23T08:31:15;16.00;99.90
18321;DHT22;54904;54.350;18.664;2022-10-23T08:33:57;16.00;99.90
18321;DHT22;54904;54.350;18.664;2022-10-23T08:36:32;16.10;99.90
18321;DHT22;54904;54.350;18.664;2022-10-23T08:39:05;16.10;99.90
18321;DHT22;54904;54.350;18.664;2022-10-23T08:41:36;16.10;99.90
18321;DHT22;54904;54.350;18.664;2022-10-23T08:44:20;16.10;99.90
18321;DHT22;54904;54.350;18.664;2022-10-23T08:46:54;16.20;99.90
18321;DHT22;54904;54.350;18.664;2022-10-23T08:49:48;16.20;99.90
18321;DHT22;54904;54.350;18.664;2022-10-23T08:52:22;16.20;99.90
18321;DHT22;54904;54.350;18.664;2022-10-23T08:55:04;16.20;99.90
18321;DHT22;54904;54.350;18.664;2022-10-23T08:57:37;16.30;99.90
18321;DHT22;54904;54.350;18.664;2022-10-23T09:00:12;16.00;99.90
18321;DHT22;54904;54.350;18.664;2022-10-23T09:02:42;16.20;99.90
18321;DHT22;54904;54.350;18.664;2022-10-23T09:05:14;16.30;99.90
18321;DHT22;54904;54.350;18.664;2022-10-23T09:07:52;16.30;99.90
18321;DHT22;54904;54.350;18.664;2022-10-23T09:10:34;16.30;99.90
18321;DHT22;54904;54.350;18.664;2022-10-23T09:13:20;16.30;99.90
18321;DHT22;54904;54.350;18.664;2022-10-23T09:15:50;16.30;99.90
18321;DHT22;54904;54.350;18.664;2022-10-23T09:18:23;16.30;99.90
18321;DHT22;54904;54.350;18.664;2022-10-23T09:20:50;16.30;99.90
18321;DHT22;54904;54.350;18.664;2022-10-23T09:23:21;16.30;99.90
18321;DHT22;54904;54.350;18.664;2022-10-23T09:25:49;16.40;99.90
18321;DHT22;54904;54.350;18.664;2022-10-23T09:28:23;16.40;99.90
18321;DHT22;54904;54.350;18.664;2022-10-23T09:30:51;16.40;99.90
18321;DHT22;54904;54.350;18.664;2022-10-23T09:33:22;16.50;99.90
18321;DHT22;54904;54.350;18.664;2022-10-23T09:35:55;16.50;99.90
18321;DHT22;54904;54.350;18.664;2022-10-23T09:38:29;16.50;99.90
18321;DHT22;54904;54.350;18.664;2022-10-23T09:40:59;16.60;99.90
18321;DHT22;54904;54.350;18.664;2022-10-23T09:43:26;16.60;99.90
18321;DHT22;54904;54.350;18.664;2022-10-23T09:46:01;16.70;99.90
18321;DHT22;54904;54.350;18.664;2022-10-23T09:48:30;16.80;99.90
18321;DHT22;54904;54.350;18.664;2022-10-23T09:50:59;16.80;99.90
18321;DHT22;54904;54.350;18.664;2022-10-23T09:53:31;16.80;99.90
18321;DHT22;54904;54.350;18.664;2022-10-23T09:56:02;16.90;99.90
18321;DHT22;54904;54.350;18.664;2022-10-23T09:58:34;16.80;99.90
18321;DHT22;54904;54.350;18.664;2022-10-23T10:01:01;16.90;99.90
18321;DHT22;54904;54.350;18.664;2022-10-23T10:03:48;16.90;99.90
18321;DHT22;54904;54.350;18.664;2022-10-23T10:06:21;16.90;99.90
18321;DHT22;54904;54.350;18.664;2022-10-23T10:08:52;16.90;99.90
18321;DHT22;54904;54.350;18.664;2022-10-23T10:11:25;16.90;99.90
18321;DHT22;54904;54.350;18.664;2022-10-23T10:14:14;16.90;99.90
18321;DHT22;54904;54.350;18.664;2022-10-23T10:16:50;16.90;99.90
18321;DHT22;54904;54.350;18.664;2022-10-23T10:19:26;16.90;99.90
18321;DHT22;54904;54.350;18.664;2022-10-23T10:22:00;16.90;99.90
18321;DHT22;54904;54.350;18.664;2022-10-23T10:24:40;16.90;99.90
18321;DHT22;54904;54.350;18.664;2022-10-23T10:27:27;16.80;99.90
18321;DHT22;54904;54.350;18.664;2022-10-23T10:30:03;16.80;99.90
18321;DHT22;54904;54.350;18.664;2022-10-23T10:32:40;16.80;99.90
18321;DHT22;54904;54.350;18.664;2022-10-23T10:35:22;16.90;99.90
18321;DHT22;54904;54.350;18.664;2022-10-23T10:38:22;16.80;99.90
18321;DHT22;54904;54.350;18.664;2022-10-23T10:41:13;16.80;99.90
18321;DHT22;54904;54.350;18.664;2022-10-23T10:43:54;16.80;99.90
18321;DHT22;54904;54.350;18.664;2022-10-23T10:46:26;16.80;99.90
18321;DHT22;54904;54.350;18.664;2022-10-23T10:48:59;16.80;99.90
18321;DHT22;54904;54.350;18.664;2022-10-23T10:51:35;16.70;99.90
18321;DHT22;54904;54.350;18.664;2022-10-23T10:54:19;16.80;99.90
18321;DHT22;54904;54.350;18.664;2022-10-23T10:56:50;16.70;99.90
18321;DHT22;54904;54.350;18.664;2022-10-23T10:59:22;16.70;99.90
18321;DHT22;54904;54.350;18.664;2022-10-23T11:01:52;16.70;99.90
18321;DHT22;54904;54.350;18.664;2022-10-23T11:04:30;16.70;99.90
18321;DHT22;54904;54.350;18.664;2022-10-23T11:07:04;16.70;99.90
18321;DHT22;54904;54.350;18.664;2022-10-23T11:09:33;16.60;99.90
18321;DHT22;54904;54.350;18.664;2022-10-23T11:12:01;16.60;99.90
18321;DHT22;54904;54.350;18.664;2022-10-23T11:14:31;16.60;99.90
18321;DHT22;54904;54.350;18.664;2022-10-23T11:17:04;16.60;99.90
18321;DHT22;54904;54.350;18.664;2022-10-23T11:19:36;16.60;99.90
18321;DHT22;54904;54.350;18.664;2022-10-23T11:22:10;16.60;99.90
18321;DHT22;54904;54.350;18.664;2022-10-23T11:27:54;16.60;99.90
18321;DHT22;54904;54.350;18.664;2022-10-23T11:30:30;16.60;99.90
18321;DHT22;54904;54.350;18.664;2022-10-23T11:36:05;16.60;99.90
18321;DHT22;54904;54.350;18.664;2022-10-23T11:38:34;16.60;99.90
18321;DHT22;54904;54.350;18.664;2022-10-23T11:41:05;16.70;99.90
18321;DHT22;54904;54.350;18.664;2022-10-23T11:43:47;16.60;99.90
18321;DHT22;54904;54.350;18.664;2022-10-23T11:46:29;16.70;99.90
18321;DHT22;54904;54.350;18.664;2022-10-23T11:48:57;16.70;99.90
18321;DHT22;54904;54.350;18.664;2022-10-23T11:51:29;16.70;99.90
18321;DHT22;54904;54.350;18.664;2022-10-23T11:54:18;16.80;99.90
18321;DHT22;54904;54.350;18.664;2022-10-23T11:57:03;16.90;99.90
18321;DHT22;54904;54.350;18.664;2022-10-23T11:59:34;16.90;99.90
18321;DHT22;54904;54.350;18.664;2022-10-23T12:04:47;17.00;99.90
18321;DHT22;54904;54.350;18.664;2022-10-23T12:07:21;17.00;99.90
18321;DHT22;54904;54.350;18.664;2022-10-23T12:09:53;17.10;99.90
18321;DHT22;54904;54.350;18.664;2022-10-23T12:12:30;17.10;99.90
18321;DHT22;54904;54.350;18.664;2022-10-23T12:15:19;17.10;99.90
18321;DHT22;54904;54.350;18.664;2022-10-23T12:17:48;17.10;99.90
18321;DHT22;54904;54.350;18.664;2022-10-23T12:20:34;17.10;99.90
18321;DHT22;54904;54.350;18.664;2022-10-23T12:23:32;17.20;99.90
18321;DHT22;54904;54.350;18.664;2022-10-23T12:26:13;17.20;99.90
18321;DHT22;54904;54.350;18.664;2022-10-23T12:28:49;17.20;99.90
18321;DHT22;54904;54.350;18.664;2022-10-23T12:31:33;17.20;99.90
18321;DHT22;54904;54.350;18.664;2022-10-23T12:34:08;17.20;99.90
18321;DHT22;54904;54.350;18.664;2022-10-23T12:36:47;17.20;99.90
18321;DHT22;54904;54.350;18.664;2022-10-23T12:39:24;17.20;99.90
18321;DHT22;54904;54.350;18.664;2022-10-23T12:41:52;17.10;99.90
18321;DHT22;54904;54.350;18.664;2022-10-23T12:44:20;17.20;99.90
18321;DHT22;54904;54.350;18.664;2022-10-23T12:46:52;17.20;99.90
18321;DHT22;54904;54.350;18.664;2022-10-23T12:49:21;17.10;99.90
18321;DHT22;54904;54.350;18.664;2022-10-23T12:51:54;17.20;99.90
18321;DHT22;54904;54.350;18.664;2022-10-23T12:54:21;17.20;99.90
18321;DHT22;54904;54.350;18.664;2022-10-23T12:56:49;17.20;99.90
18321;DHT22;54904;54.350;18.664;2022-10-23T12:59:20;17.20;99.90
18321;DHT22;54904;54.350;18.664;2022-10-23T13:01:50;17.20;99.90
18321;DHT22;54904;54.350;18.664;2022-10-23T13:04:22;17.30;99.90
18321;DHT22;54904;54.350;18.664;2022-10-23T13:06:52;17.30;99.90
18321;DHT22;54904;54.350;18.664;2022-10-23T13:09:23;17.30;99.90
18321;DHT22;54904;54.350;18.664;2022-10-23T13:12:18;17.20;99.90
18321;DHT22;54904;54.350;18.664;2022-10-23T13:14:55;17.20;99.90
18321;DHT22;54904;54.350;18.664;2022-10-23T13:17:35;17.20;99.90
18321;DHT22;54904;54.350;18.664;2022-10-23T13:20:21;17.20;99.90
18321;DHT22;54904;54.350;18.664;2022-10-23T13:22:53;17.20;99.90
18321;DHT22;54904;54.350;18.664;2022-10-23T13:25:24;17.20;99.90
18321;DHT22;54904;54.350;18.664;2022-10-23T13:28:04;17.20;99.90
18321;DHT22;54904;54.350;18.664;2022-10-23T13:30:38;17.20;99.90
18321;DHT22;54904;54.350;18.664;2022-10-23T13:33:18;17.10;99.90
18321;DHT22;54904;54.350;18.664;2022-10-23T13:35:54;17.10;99.90
18321;DHT22;54904;54.350;18.664;2022-10-23T13:38:27;17.10;99.90
18321;DHT22;54904;54.350;18.664;2022-10-23T13:40:55;17.10;99.90
18321;DHT22;54904;54.350;18.664;2022-10-23T13:43:24;17.10;99.90
18321;DHT22;54904;54.350;18.664;2022-10-23T13:45:52;17.00;99.90
18321;DHT22;54904;54.350;18.664;2022-10-23T13:48:21;17.10;99.90
18321;DHT22;54904;54.350;18.664;2022-10-23T13:50:48;17.10;99.90
18321;DHT22;54904;54.350;18.664;2022-10-23T13:53:15;17.10;99.90
18321;DHT22;54904;54.350;18.664;2022-10-23T13:55:43;17.10;99.90
18321;DHT22;54904;54.350;18.664;2022-10-23T13:58:11;17.10;99.90
18321;DHT22;54904;54.350;18.664;2022-10-23T14:00:38;17.00;99.90
18321;DHT22;54904;54.350;18.664;2022-10-23T14:03:08;17.10;99.90
18321;DHT22;54904;54.350;18.664;2022-10-23T14:05:37;17.10;99.90
18321;DHT22;54904;54.350;18.664;2022-10-23T14:08:04;17.10;99.90
18321;DHT22;54904;54.350;18.664;2022-10-23T14:10:32;17.10;99.90
18321;DHT22;54904;54.350;18.664;2022-10-23T14:12:59;17.10;99.90
18321;DHT22;54904;54.350;18.664;2022-10-23T14:15:26;17.10;99.90
18321;DHT22;54904;54.350;18.664;2022-10-23T14:17:54;17.10;99.90
18321;DHT22;54904;54.350;18.664;2022-10-23T14:20:21;17.10;99.90
18321;DHT22;54904;54.350;18.664;2022-10-23T14:22:49;17.10;99.90
18321;DHT22;54904;54.350;18.664;2022-10-23T14:25:17;17.10;99.90
18321;DHT22;54904;54.350;18.664;2022-10-23T14:27:45;17.10;99.90
18321;DHT22;54904;54.350;18.664;2022-10-23T14:30:12;17.10;99.90
18321;DHT22;54904;54.350;18.664;2022-10-23T14:32:39;17.10;99.90
18321;DHT22;54904;54.350;18.664;2022-10-23T14:35:07;17.10;99.90
18321;DHT22;54904;54.350;18.664;2022-10-23T14:37:34;17.10;99.90
18321;DHT22;54904;54.350;18.664;2022-10-23T14:40:04;17.10;99.90
18321;DHT22;54904;54.350;18.664;2022-10-23T14:42:31;17.00;99.90
18321;DHT22;54904;54.350;18.664;2022-10-23T14:44:59;17.10;99.90
18321;DHT22;54904;54.350;18.664;2022-10-23T14:47:27;17.00;99.90
18321;DHT22;54904;54.350;18.664;2022-10-23T14:49:55;17.00;99.90
18321;DHT22;54904;54.350;18.664;2022-10-23T14:52:22;17.00;99.90
18321;DHT22;54904;54.350;18.664;2022-10-23T14:54:50;17.00;99.90
18321;DHT22;54904;54.350;18.664;2022-10-23T14:57:20;17.00;99.90
18321;DHT22;54904;54.350;18.664;2022-10-23T14:59:48;17.00;99.90
18321;DHT22;54904;54.350;18.664;2022-10-23T15:02:18;16.90;99.90
18321;DHT22;54904;54.350;18.664;2022-10-23T15:04:45;16.90;99.90
18321;DHT22;54904;54.350;18.664;2022-10-23T15:07:12;16.90;99.90
18321;DHT22;54904;54.350;18.664;2022-10-23T15:09:39;16.90;99.90
18321;DHT22;54904;54.350;18.664;2022-10-23T15:12:09;16.90;99.90
18321;DHT22;54904;54.350;18.664;2022-10-23T15:14:38;16.90;99.90
18321;DHT22;54904;54.350;18.664;2022-10-23T15:17:05;16.90;99.90
18321;DHT22;54904;54.350;18.664;2022-10-23T15:19:32;16.80;99.90
18321;DHT22;54904;54.350;18.664;2022-10-23T15:22:00;16.80;99.90
18321;DHT22;54904;54.350;18.664;2022-10-23T15:24:27;16.80;99.90
18321;DHT22;54904;54.350;18.664;2022-10-23T15:26:54;16.80;99.90
18321;DHT22;54904;54.350;18.664;2022-10-23T15:29:21;16.80;99.90
18321;DHT22;54904;54.350;18.664;2022-10-23T15:31:54;16.80;99.90
18321;DHT22;54904;54.350;18.664;2022-10-23T15:34:25;16.70;99.90
18321;DHT22;54904;54.350;18.664;2022-10-23T15:36:53;16.70;99.90
18321;DHT22;54904;54.350;18.664;2022-10-23T15:39:23;16.70;99.90
18321;DHT22;54904;54.350;18.664;2022-10-23T15:41:52;16.70;99.90
18321;DHT22;54904;54.350;18.664;2022-10-23T15:44:21;16.60;99.90
18321;DHT22;54904;54.350;18.664;2022-10-23T15:46:49;16.60;99.90
18321;DHT22;54904;54.350;18.664;2022-10-23T15:49:18;16.60;99.90
18321;DHT22;54904;54.350;18.664;2022-10-23T15:51:46;16.60;99.90
18321;DHT22;54904;54.350;18.664;2022-10-23T15:54:15;16.60;99.90
18321;DHT22;54904;54.350;18.664;2022-10-23T15:56:44;16.60;99.90
18321;DHT22;54904;54.350;18.664;2022-10-23T15:59:12;16.50;99.90